Time;durP1;ratioP1;P1;durP2;ratioP2;P2;SDS_P1;SDS_P2;PMS_P1;PMS_P2;Temp;Humidity;BMP_temperature;BMP_pressure;BME280_temperature;BME280_humidity;BME280_pressure;Samples;Min_cycle;Max_cycle;Signal;HPM_P1;HPM_P2
2023/06/04 00:02:04;;;;;;;4.95;4.65;;;;;;;10.54;55.44;100935.13;6001044;23;20019;-74
2023/06/04 00:04:44;;;;;;;4.75;4.55;;;;;;;11.62;55.98;101129.47;6012595;23;20047;-75
2023/06/04 00:07:15;;;;;;;4.85;4.63;;;;;;;11.51;56.02;101122.13;6038869;23;20045;-74
2023/06/04 00:09:59;;;;;;;5.45;5.15;;;;;;;10.25;57.10;100941.72;6007414;23;20494;-75
2023/06/04 00:12:49;;;;;;;4.88;4.68;;;;;;;11.38;57.74;101147.28;6033973;23;20485;-74
2023/06/04 00:15:32;;;;;;;4.63;4.43;;;;;;;11.32;58.07;101142.34;5986538;23;20042;-74
2023/06/04 00:18:06;;;;;;;4.75;4.55;;;;;;;9.63;57.81;100885.16;6042529;23;20025;-74
2023/06/04 00:20:46;;;;;;;5.05;4.82;;;;;;;11.14;58.22;101131.78;6011962;23;20576;-75
2023/06/04 00:23:24;;;;;;;5.40;4.90;;;;;;;10.05;58.03;100962.75;6038098;23;20085;-74
2023/06/04 00:26:19;;;;;;;4.80;4.50;;;;;;;10.99;58.76;101119.38;6003372;23;20077;-75
2023/06/04 00:29:05;;;;;;;4.78;4.47;;;;;;;11.02;58.64;101113.97;6007988;23;20021;-74
2023/06/04 00:31:31;;;;;;;8.65;5.03;;;;;;;9.67;58.55;100905.91;6026791;23;20130;-74
2023/06/04 00:33:58;;;;;;;4.68;4.45;;;;;;;10.98;58.42;101118.53;6012585;23;20017;-74
2023/06/04 00:36:24;;;;;;;4.80;4.50;;;;;;;10.92;58.41;101110.06;6013931;23;20111;-74
2023/06/04 00:38:51;;;;;;;4.60;4.30;;;;;;;10.86;59.10;101111.22;6002878;23;20072;-73
2023/06/04 00:41:17;;;;;;;4.78;4.53;;;;;;;10.72;58.82;101088.25;6016827;23;20034;-74
2023/06/04 00:43:55;;;;;;;5.00;4.80;;;;;;;10.67;59.19;101090.22;6028924;23;20035;-74
2023/06/04 00:46:24;;;;;;;5.55;5.25;;;;;;;10.21;59.11;101016.22;6031296;23;20334;-73
2023/06/04 00:48:52;;;;;;;5.05;4.70;;;;;;;9.71;59.64;100959.03;6009583;23;20018;-74
2023/06/04 00:51:20;;;;;;;5.40;5.05;;;;;;;9.79;59.18;100964.78;6013926;23;20023;-74
2023/06/04 00:53:51;;;;;;;4.50;4.30;;;;;;;10.70;59.42;101111.06;6012482;23;20093;-74
2023/06/04 00:56:18;;;;;;;5.10;4.80;;;;;;;10.66;59.46;101106.88;6010324;23;20023;-74
2023/06/04 00:58:46;;;;;;;5.07;4.78;;;;;;;10.61;59.65;101111.50;6031903;23;20086;-74
2023/06/04 01:01:32;;;;;;;4.57;4.28;;;;;;;10.63;59.77;101108.81;6004425;23;20030;-75
2023/06/04 01:04:02;;;;;;;4.97;4.65;;;;;;;10.50;60.10;101096.25;6036762;23;20034;-74
2023/06/04 01:06:48;;;;;;;4.70;4.50;;;;;;;10.33;60.04;101068.16;6006203;23;20085;-73
2023/06/04 01:09:15;;;;;;;4.80;4.50;;;;;;;10.63;60.15;101120.16;6050167;23;20129;-75
2023/06/04 01:11:42;;;;;;;5.13;4.82;;;;;;;10.55;59.61;101093.41;6008239;23;20082;-74
2023/06/04 01:14:09;;;;;;;5.20;4.90;;;;;;;10.29;60.10;101071.81;6030775;23;20642;-74
2023/06/04 01:16:45;;;;;;;4.97;4.68;;;;;;;9.60;60.33;100985.69;6007600;23;20039;-74
2023/06/04 01:19:33;;;;;;;4.72;4.53;;;;;;;10.55;60.06;101117.03;6034756;23;20038;-74
2023/06/04 01:22:08;;;;;;;4.53;4.32;;;;;;;10.37;60.44;101085.44;6007663;23;20084;-74
2023/06/04 01:24:37;;;;;;;4.85;4.57;;;;;;;9.52;60.23;100943.25;6022429;23;20138;-74
2023/06/04 01:27:10;;;;;;;5.25;4.75;;;;;;;10.41;60.03;101107.16;6014599;23;20086;-74
2023/06/04 01:29:40;;;;;;;5.20;4.90;;;;;;;10.34;60.54;101122.34;6006903;23;20094;-74
2023/06/04 01:32:07;;;;;;;4.43;4.22;;;;;;;10.15;60.98;101108.28;6036972;23;20524;-74
2023/06/04 01:34:44;;;;;;;4.90;4.70;;;;;;;9.30;62.03;100980.88;6005164;23;20031;-73
2023/06/04 01:37:11;;;;;;;4.45;4.20;;;;;;;9.29;61.69;100973.09;6033521;23;20093;-74
2023/06/04 01:39:37;;;;;;;5.00;4.70;;;;;;;10.02;61.57;101101.88;6002907;23;20035;-74
2023/06/04 01:42:04;;;;;;;4.97;4.68;;;;;;;10.18;62.23;101163.22;6010843;23;20027;-75
2023/06/04 01:44:31;;;;;;;4.70;4.50;;;;;;;8.94;62.25;100938.75;6001997;23;20035;-75
2023/06/04 01:46:57;;;;;;;4.57;4.38;;;;;;;9.95;61.96;101086.41;6020869;23;20030;-75
2023/06/04 01:49:24;;;;;;;4.60;4.30;;;;;;;8.74;62.12;100887.22;5999263;23;20537;-74
2023/06/04 01:51:50;;;;;;;4.43;4.22;;;;;;;9.69;61.39;101044.75;6031433;23;20449;-74
2023/06/04 01:54:17;;;;;;;5.20;4.80;;;;;;;9.66;61.39;101031.75;6008245;23;20023;-74
2023/06/04 01:56:43;;;;;;;5.35;4.95;;;;;;;9.16;61.16;100939.56;6031862;23;20061;-73
2023/06/04 01:59:11;;;;;;;4.93;4.65;;;;;;;10.19;60.97;101107.22;6029236;23;20051;-73
2023/06/04 02:02:04;;;;;;;4.85;4.60;;;;;;;10.11;61.27;101106.72;6034706;23;20014;-74
2023/06/04 02:04:46;;;;;;;4.60;4.40;;;;;;;10.03;61.22;101117.53;5910405;24;20033;-74
2023/06/04 02:07:20;;;;;;;4.28;4.07;;;;;;;8.37;62.09;100870.41;6032908;23;20596;-74
2023/06/04 02:09:47;;;;;;;4.97;4.68;;;;;;;8.70;63.02;100951.94;6008771;23;20034;-74
2023/06/04 02:12:14;;;;;;;4.72;4.43;;;;;;;9.56;63.02;101123.00;6027146;23;20041;-74
2023/06/04 02:14:42;;;;;;;4.70;4.40;;;;;;;9.62;63.48;101133.22;6022720;23;20043;-75
2023/06/04 02:17:12;;;;;;;6.35;4.20;;;;;;;9.71;63.88;101158.22;6012265;23;20089;-74
2023/06/04 02:19:44;;;;;;;4.43;4.22;;;;;;;9.77;64.27;101156.19;6020792;23;20605;-75
2023/06/04 02:22:12;;;;;;;4.63;4.43;;;;;;;9.28;63.67;101076.13;6000681;23;20094;-75
2023/06/04 02:24:42;;;;;;;4.90;4.70;;;;;;;9.70;63.59;101146.91;6018268;23;20035;-76
2023/06/04 02:27:15;;;;;;;5.45;4.30;;;;;;;9.67;63.68;101144.38;6007493;23;20030;-74
2023/06/04 02:29:55;;;;;;;5.15;4.50;;;;;;;9.66;64.17;101141.81;6011852;23;20031;-74
2023/06/04 02:32:35;;;;;;;4.80;4.50;;;;;;;9.59;64.03;101155.19;6032417;23;20629;-74
2023/06/04 02:35:03;;;;;;;12.32;4.55;;;;;;;9.56;65.05;101171.03;6037824;23;20045;-74
2023/06/04 02:37:30;;;;;;;4.30;4.10;;;;;;;9.37;65.55;101149.94;6011562;23;20061;-74
2023/06/04 02:40:40;;;;;;;4.50;4.30;;;;;;;9.58;65.13;101163.09;6038156;23;20498;-75
2023/06/04 02:43:17;;;;;;;4.47;4.28;;;;;;;8.30;65.25;100947.38;5899931;24;20032;-74
2023/06/04 02:46:03;;;;;;;4.60;4.40;;;;;;;9.54;65.79;101183.34;5928786;24;20048;-74
2023/06/04 02:48:46;;;;;;;4.57;4.38;;;;;;;8.15;65.70;100930.53;5926044;24;20628;-74
2023/06/04 02:51:19;;;;;;;4.55;4.25;;;;;;;9.43;65.83;101155.88;5907031;24;20032;-74
2023/06/04 02:54:06;;;;;;;4.50;4.30;;;;;;;9.36;66.88;101168.34;5989662;23;20643;-74
2023/06/04 02:56:35;;;;;;;4.90;4.68;;;;;;;9.27;66.41;101166.94;6008308;23;20033;-76
2023/06/04 02:59:09;;;;;;;4.40;4.20;;;;;;;8.15;66.93;100988.88;6030677;23;20010;-74
2023/06/04 03:01:49;;;;;;;4.85;4.57;;;;;;;7.73;67.21;100932.06;5996456;23;20034;-74
2023/06/04 03:04:18;;;;;;;4.90;4.60;;;;;;;8.87;67.80;101128.38;6036321;23;20030;-74
2023/06/04 03:06:46;;;;;;;6.65;4.82;;;;;;;8.90;67.93;101133.47;6009521;23;20078;-75
2023/06/04 03:09:13;;;;;;;6.18;4.80;;;;;;;9.16;67.77;101179.59;6036310;23;20089;-74
2023/06/04 03:11:39;;;;;;;4.40;4.20;;;;;;;8.73;67.70;101129.72;6020116;23;20038;-74
2023/06/04 03:14:06;;;;;;;5.43;5.03;;;;;;;9.08;68.28;101195.63;6038709;23;20065;-74
2023/06/04 03:16:39;;;;;;;4.60;4.32;;;;;;;9.07;68.97;101209.59;5999428;23;20026;-74
2023/06/04 03:19:06;;;;;;;4.07;3.88;;;;;;;7.57;69.18;100955.28;6013401;23;20102;-74
2023/06/04 03:21:32;;;;;;;4.13;3.92;;;;;;;9.11;68.88;101205.13;6055041;23;20074;-74
2023/06/04 03:24:02;;;;;;;4.38;4.15;;;;;;;9.05;68.63;101195.72;6013189;23;20035;-74
2023/06/04 03:26:28;;;;;;;4.05;3.85;;;;;;;9.06;67.96;101191.31;6036916;23;20033;-73
2023/06/04 03:28:55;;;;;;;4.85;4.55;;;;;;;9.14;69.21;101199.75;6013371;23;20027;-74
2023/06/04 03:31:21;;;;;;;4.57;4.18;;;;;;;8.61;68.33;101106.66;6034427;23;20034;-75
2023/06/04 03:33:48;;;;;;;4.93;4.53;;;;;;;9.16;68.05;101192.69;6033270;23;20703;-75
2023/06/04 03:36:16;;;;;;;4.65;4.30;;;;;;;7.82;68.31;100979.66;6039478;23;20033;-75
2023/06/04 03:38:44;;;;;;;4.43;4.22;;;;;;;9.23;67.99;101198.56;6010392;23;20094;-75
2023/06/04 03:41:11;;;;;;;4.72;4.43;;;;;;;9.25;67.80;101186.25;6035590;23;20608;-74
2023/06/04 03:43:37;;;;;;;5.13;4.82;;;;;;;9.18;68.26;101170.78;6008555;23;20391;-74
2023/06/04 03:46:04;;;;;;;4.40;4.20;;;;;;;9.14;67.98;101152.59;6037743;23;20571;-74
2023/06/04 03:48:31;;;;;;;4.13;3.90;;;;;;;9.24;68.29;101179.31;6005629;23;20650;-74
2023/06/04 03:50:57;;;;;;;4.13;3.92;;;;;;;9.35;67.15;101182.38;6034470;23;20029;-74
2023/06/04 03:53:23;;;;;;;4.10;3.90;;;;;;;9.39;67.88;101184.78;6005919;23;20023;-74
2023/06/04 03:55:50;;;;;;;4.60;4.30;;;;;;;9.43;67.93;101196.00;6038156;23;20011;-74
2023/06/04 03:58:16;;;;;;;4.63;4.40;;;;;;;9.48;67.61;101204.56;6010019;23;20135;-74
2023/06/04 04:00:43;;;;;;;4.90;4.70;;;;;;;9.51;68.03;101199.19;6031540;23;20033;-75
2023/06/04 04:03:09;;;;;;;4.20;4.00;;;;;;;8.56;67.84;101019.66;6004960;23;20058;-74
2023/06/04 04:05:36;;;;;;;5.43;4.93;;;;;;;9.22;67.32;101107.81;6007709;23;20015;-73
2023/06/04 04:08:04;;;;;;;4.50;4.20;;;;;;;9.97;67.10;101192.06;6015809;23;20215;-75
2023/06/04 04:10:30;;;;;;;4.75;4.55;;;;;;;9.30;66.02;101008.81;6005432;23;20075;-74
2023/06/04 04:12:58;;;;;;;4.35;4.15;;;;;;;10.86;64.21;101139.25;6042923;23;20053;-73
2023/06/04 04:15:25;;;;;;;6.28;4.85;;;;;;;11.42;62.61;101087.56;6006947;23;20030;-73
2023/06/04 04:17:52;;;;;;;5.00;4.60;;;;;;;11.46;60.43;100971.69;6036094;23;20240;-74
2023/06/04 04:20:19;;;;;;;4.90;4.50;;;;;;;12.64;58.79;101067.19;6009931;23;20075;-74
2023/06/04 04:22:45;;;;;;;5.25;4.75;;;;;;;12.86;58.57;101073.91;6018542;23;20109;-73
2023/06/04 04:25:15;;;;;;;7.45;5.40;;;;;;;12.72;58.41;101038.63;6010941;23;20034;-74
2023/06/04 04:27:41;;;;;;;5.32;4.85;;;;;;;13.40;56.84;101045.34;6011312;23;20089;-73
2023/06/04 04:30:09;;;;;;;5.50;5.20;;;;;;;14.58;55.94;101110.47;6006475;23;20637;-74
2023/06/04 04:32:38;;;;;;;5.07;4.78;;;;;;;15.31;54.15;101099.59;6020018;23;20015;-73
2023/06/04 04:35:05;;;;;;;5.50;5.07;;;;;;;15.14;52.40;100979.09;6011343;23;20098;-73
2023/06/04 04:37:31;;;;;;;5.25;4.95;;;;;;;14.53;53.65;100976.88;6049981;23;20537;-73
2023/06/04 04:39:58;;;;;;;5.45;5.05;;;;;;;14.48;54.23;100983.38;6015164;23;20023;-73
2023/06/04 04:42:24;;;;;;;5.57;5.18;;;;;;;14.56;53.79;100968.75;6031828;23;20029;-74
2023/06/04 04:44:51;;;;;;;6.82;5.60;;;;;;;15.19;52.42;101006.06;6004863;23;20792;-73
2023/06/04 04:47:18;;;;;;;5.65;5.25;;;;;;;15.18;52.09;100985.88;6023771;23;20053;-73
2023/06/04 04:49:44;;;;;;;5.47;5.18;;;;;;;14.97;52.54;100998.72;6006502;23;20027;-74
2023/06/04 04:52:14;;;;;;;5.85;5.43;;;;;;;15.41;52.84;101055.72;6030285;23;20474;-73
2023/06/04 04:54:40;;;;;;;5.68;5.32;;;;;;;15.50;51.26;100986.34;6009677;23;20030;-73
2023/06/04 04:57:07;;;;;;;5.82;5.53;;;;;;;15.96;50.48;100982.34;6035420;23;20056;-73
2023/06/04 04:59:39;;;;;;;6.22;5.80;;;;;;;16.02;50.10;100955.44;6009906;23;20038;-73
2023/06/04 05:02:06;;;;;;;6.28;5.78;;;;;;;16.17;49.63;100945.53;6055283;23;20023;-73
2023/06/04 05:04:33;;;;;;;5.80;5.40;;;;;;;16.81;49.17;101002.75;6006526;23;20486;-72
2023/06/04 05:06:59;;;;;;;5.88;5.57;;;;;;;14.93;48.81;100658.97;6029937;23;20027;-73
2023/06/04 05:09:28;;;;;;;6.50;6.07;;;;;;;16.68;47.99;100823.47;6004006;23;20027;-73
2023/06/04 05:11:55;;;;;;;5.97;5.57;;;;;;;17.93;46.82;100962.44;6020456;23;20024;-73
2023/06/04 05:14:21;;;;;;;5.68;5.35;;;;;;;18.12;46.38;100937.91;6002690;23;20023;-73
2023/06/04 05:16:48;;;;;;;5.97;5.57;;;;;;;17.74;46.57;100864.81;6030136;23;20014;-72
2023/06/04 05:19:16;;;;;;;6.30;5.90;;;;;;;18.92;45.77;101014.72;6007416;23;20093;-73
2023/06/04 05:21:44;;;;;;;6.35;5.95;;;;;;;19.17;44.27;100938.19;6007296;23;20031;-75
2023/06/04 05:24:10;;;;;;;5.95;5.65;;;;;;;18.71;45.16;100953.47;6039565;23;20097;-73
2023/06/04 05:26:37;;;;;;;6.55;6.05;;;;;;;18.89;44.92;100934.34;6004259;23;20469;-73
2023/06/04 05:29:04;;;;;;;5.88;5.53;;;;;;;20.47;43.72;101055.75;6035741;23;20053;-73
2023/06/04 05:31:33;;;;;;;6.40;6.00;;;;;;;20.39;42.89;100988.94;6007842;23;20037;-74
2023/06/04 05:34:01;;;;;;;6.60;6.20;;;;;;;20.65;42.63;101016.81;6026866;23;20015;-73
2023/06/04 05:36:29;;;;;;;6.55;6.10;;;;;;;20.88;41.84;100958.69;6008410;23;20031;-73
2023/06/04 05:38:59;;;;;;;6.38;5.88;;;;;;;20.23;40.59;100865.03;6027961;23;20519;-73
2023/06/04 05:41:27;;;;;;;6.47;6.00;;;;;;;20.95;40.54;100902.97;5997239;23;20055;-74
2023/06/04 05:43:53;;;;;;;6.25;5.90;;;;;;;21.03;39.69;100918.25;6006705;23;20946;-73
2023/06/04 05:46:21;;;;;;;6.05;5.75;;;;;;;20.41;39.52;100829.72;6021548;23;20656;-74
2023/06/04 05:48:48;;;;;;;6.38;5.97;;;;;;;20.83;39.00;100870.25;6002118;23;20019;-74
2023/06/04 05:51:14;;;;;;;7.53;7.13;;;;;;;20.23;38.41;100771.78;6009668;23;20079;-73
2023/06/04 05:53:41;;;;;;;6.82;6.40;;;;;;;19.05;38.99;100694.50;6007031;23;20561;-73
2023/06/04 05:56:08;;;;;;;6.10;5.70;;;;;;;20.32;39.27;100898.84;5993243;23;20305;-74
2023/06/04 05:58:34;;;;;;;6.18;5.68;;;;;;;20.03;39.48;100858.00;6001693;23;20078;-74
2023/06/04 06:01:01;;;;;;;5.90;5.60;;;;;;;20.02;39.04;100859.81;6028437;23;20063;-74
2023/06/04 06:03:27;;;;;;;6.05;5.75;;;;;;;18.93;39.90;100800.97;6025098;23;20041;-74
2023/06/04 06:05:56;;;;;;;6.30;5.90;;;;;;;18.53;40.84;100808.81;6033393;23;20010;-74
2023/06/04 06:08:23;;;;;;;6.20;5.80;;;;;;;18.60;39.85;100767.47;6002431;23;20026;-74
2023/06/04 06:10:50;;;;;;;6.07;5.70;;;;;;;18.10;40.21;100699.03;6004856;23;20019;-74
2023/06/04 06:13:16;;;;;;;5.95;5.65;;;;;;;19.26;40.57;100900.16;6015276;23;20617;-74
2023/06/04 06:15:43;;;;;;;6.03;5.72;;;;;;;19.81;38.84;100880.38;6004894;23;20470;-74
2023/06/04 06:18:09;;;;;;;5.80;5.50;;;;;;;19.71;39.47;100934.44;6025939;23;20027;-73
2023/06/04 06:20:36;;;;;;;5.95;5.65;;;;;;;19.44;39.05;100868.41;6025303;23;20549;-74
2023/06/04 06:23:06;;;;;;;6.18;5.88;;;;;;;18.53;41.32;100865.47;6035600;23;20026;-73
2023/06/04 06:25:33;;;;;;;5.78;5.45;;;;;;;17.69;40.71;100699.75;6003249;23;20026;-73
2023/06/04 06:27:59;;;;;;;6.30;5.80;;;;;;;18.49;41.30;100903.88;6002288;23;20035;-73
2023/06/04 06:30:26;;;;;;;5.95;5.45;;;;;;;17.66;40.21;100721.22;6004823;23;20043;-73
2023/06/04 06:32:53;;;;;;;6.28;5.88;;;;;;;17.95;41.18;100827.75;6000543;23;20027;-74
2023/06/04 06:35:22;;;;;;;6.05;5.65;;;;;;;17.00;41.68;100766.28;6005182;23;20100;-74
2023/06/04 06:37:48;;;;;;;6.07;5.78;;;;;;;18.12;41.91;100940.56;6012368;23;20029;-74
2023/06/04 06:40:15;;;;;;;6.10;5.70;;;;;;;16.90;42.08;100766.19;6010185;23;20150;-74
2023/06/04 06:42:41;;;;;;;6.10;5.70;;;;;;;16.82;42.23;100769.44;6048141;23;20030;-73
2023/06/04 06:45:08;;;;;;;5.90;5.50;;;;;;;17.64;42.87;100939.00;5995910;23;20668;-73
2023/06/04 06:47:35;;;;;;;5.57;5.28;;;;;;;18.37;42.22;100997.06;6035202;23;20035;-73
2023/06/04 06:50:02;;;;;;;6.32;5.93;;;;;;;18.31;41.64;100983.28;6005990;23;20079;-73
2023/06/04 06:52:28;;;;;;;5.65;5.30;;;;;;;18.54;41.73;101015.13;5993192;23;20022;-70
2023/06/04 06:54:57;;;;;;;6.10;5.80;;;;;;;18.07;41.26;100916.22;6007884;23;20038;-74
2023/06/04 06:57:24;;;;;;;5.93;5.57;;;;;;;17.19;41.50;100811.63;5996753;23;20022;-73
2023/06/04 06:59:53;;;;;;;6.00;5.60;;;;;;;18.49;42.03;101049.22;6000767;23;20035;-73
2023/06/04 07:02:20;;;;;;;7.15;5.50;;;;;;;18.03;40.98;100897.00;6025502;23;20034;-74
2023/06/04 07:04:47;;;;;;;6.38;5.85;;;;;;;18.56;40.57;100969.84;6002647;23;20023;-74
2023/06/04 07:07:14;;;;;;;6.05;5.68;;;;;;;18.56;41.40;101007.88;6009183;23;20098;-73
2023/06/04 07:09:44;;;;;;;6.18;5.78;;;;;;;18.33;41.34;100973.38;6006299;23;20538;-74
2023/06/04 07:12:10;;;;;;;5.90;5.60;;;;;;;17.97;40.97;100894.00;6012078;23;20011;-73
2023/06/04 07:14:36;;;;;;;5.55;5.25;;;;;;;18.81;41.22;101044.00;6011375;23;20086;-73
2023/06/04 07:17:03;;;;;;;6.10;5.80;;;;;;;18.31;41.09;100930.16;6003691;23;20102;-74
2023/06/04 07:19:30;;;;;;;6.00;5.60;;;;;;;18.42;40.36;100929.31;6054757;23;20029;-74
2023/06/04 07:21:56;;;;;;;8.05;5.80;;;;;;;19.02;40.48;101030.75;6005046;23;20679;-73
2023/06/04 07:24:23;;;;;;;5.60;5.30;;;;;;;18.38;39.81;100880.03;6005792;23;20045;-75
2023/06/04 07:26:49;;;;;;;6.00;5.60;;;;;;;18.93;40.62;101026.19;5996304;23;20031;-74
2023/06/04 07:29:16;;;;;;;5.88;5.57;;;;;;;18.86;39.91;100985.97;6047771;23;20449;-74
2023/06/04 07:31:42;;;;;;;5.60;5.30;;;;;;;18.84;41.21;101054.41;6012299;23;20035;-74
2023/06/04 07:34:09;;;;;;;6.13;5.63;;;;;;;18.88;40.91;101037.22;6028615;23;20027;-73
2023/06/04 07:36:36;;;;;;;5.65;5.30;;;;;;;18.96;40.47;101007.31;6001727;23;20031;-74
2023/06/04 07:39:04;;;;;;;6.00;5.70;;;;;;;19.15;39.73;100990.69;6031393;23;20037;-74
2023/06/04 07:41:30;;;;;;;5.70;5.40;;;;;;;19.08;39.77;100985.03;5997797;23;20035;-74
2023/06/04 07:43:57;;;;;;;5.78;5.45;;;;;;;18.94;40.10;100977.34;6039396;23;20010;-74
2023/06/04 07:46:23;;;;;;;5.68;5.38;;;;;;;19.60;40.49;101080.09;6012754;23;20598;-73
2023/06/04 07:48:50;;;;;;;5.60;5.30;;;;;;;18.97;41.11;101016.16;6042576;23;20080;-74
2023/06/04 07:51:19;;;;;;;5.57;5.28;;;;;;;19.57;40.11;101067.88;6006258;23;20532;-74
2023/06/04 07:53:46;;;;;;;5.95;5.65;;;;;;;19.94;40.17;101112.72;6029144;23;20109;-73
2023/06/04 07:56:12;;;;;;;5.85;5.55;;;;;;;20.01;40.36;101113.91;6000981;23;20620;-73
2023/06/04 07:58:39;;;;;;;6.00;5.60;;;;;;;19.59;39.36;101011.84;6024240;23;20019;-74
2023/06/04 08:01:05;;;;;;;6.25;5.80;;;;;;;18.86;40.46;100947.88;6003945;23;20237;-74
2023/06/04 08:03:34;;;;;;;6.53;5.88;;;;;;;19.82;39.18;101023.22;6036761;23;20555;-73
2023/06/04 08:06:01;;;;;;;5.90;5.60;;;;;;;19.85;38.57;101001.66;6001507;23;20034;-74
2023/06/04 08:08:30;;;;;;;5.85;5.55;;;;;;;20.22;38.30;101011.75;6028118;23;20044;-73
2023/06/04 08:10:58;;;;;;;6.40;6.00;;;;;;;20.32;39.42;101097.91;6025017;23;20100;-74
2023/06/04 08:13:24;;;;;;;6.45;5.90;;;;;;;20.61;38.38;101084.72;6034672;23;20822;-74
2023/06/04 08:15:51;;;;;;;6.32;5.95;;;;;;;20.53;38.65;101068.53;6010961;23;20080;-74
2023/06/04 08:18:17;;;;;;;6.22;5.82;;;;;;;20.20;38.55;101033.19;6008551;23;20130;-74
2023/06/04 08:20:43;;;;;;;6.35;5.95;;;;;;;20.43;37.50;101001.03;6018567;23;20023;-73
2023/06/04 08:23:10;;;;;;;6.43;6.03;;;;;;;19.67;37.09;100892.22;6013529;23;20163;-74
2023/06/04 08:25:36;;;;;;;6.35;5.88;;;;;;;20.24;37.54;100978.66;6007325;23;20031;-73
2023/06/04 08:28:03;;;;;;;6.32;5.93;;;;;;;20.49;36.76;100974.66;6003400;23;20037;-73
2023/06/04 08:30:30;;;;;;;6.50;6.10;;;;;;;20.52;36.58;100961.03;6033718;23;20033;-73
2023/06/04 08:32:56;;;;;;;6.05;5.72;;;;;;;21.38;36.69;101093.81;6013314;23;20019;-73
2023/06/04 08:35:23;;;;;;;6.13;5.72;;;;;;;20.61;35.30;100895.41;6035061;23;20022;-73
2023/06/04 08:37:49;;;;;;;6.20;5.90;;;;;;;21.43;36.43;101058.69;6027125;23;20031;-73
2023/06/04 08:40:16;;;;;;;9.70;5.97;;;;;;;20.57;34.07;100813.09;6029271;23;20022;-73
2023/06/04 08:42:44;;;;;;;6.10;5.80;;;;;;;21.28;34.19;100951.50;6009411;23;20017;-73
2023/06/04 08:45:12;;;;;;;6.00;5.60;;;;;;;21.22;33.68;100906.69;6008164;23;20118;-73
2023/06/04 08:47:49;;;;;;;9.15;5.53;;;;;;;19.95;34.40;100783.28;6005469;23;20033;-74
2023/06/04 08:50:24;;;;;;;6.30;5.90;;;;;;;21.05;33.70;100943.81;6031154;23;20087;-74
2023/06/04 08:52:56;;;;;;;5.90;5.60;;;;;;;19.98;34.03;100774.97;6006888;23;20094;-74
2023/06/04 08:55:23;;;;;;;6.05;5.70;;;;;;;21.02;34.27;100976.09;6030046;23;20274;-74
2023/06/04 08:57:53;;;;;;;6.57;6.07;;;;;;;21.33;34.67;101024.00;6008675;23;20098;-73
2023/06/04 09:00:20;;;;;;;6.10;5.70;;;;;;;21.00;32.83;100891.84;6014863;23;20034;-75
2023/06/04 09:02:47;;;;;;;5.90;5.60;;;;;;;20.41;33.57;100819.03;6008576;23;20117;-74
2023/06/04 09:05:25;;;;;;;5.70;5.40;;;;;;;21.09;34.00;100955.03;6014536;23;20030;-75
2023/06/04 09:07:56;;;;;;;5.85;5.55;;;;;;;19.90;33.93;100771.19;6007245;23;20023;-75
2023/06/04 09:10:27;;;;;;;5.82;5.43;;;;;;;21.47;34.51;101077.00;6001935;23;20116;-76
2023/06/04 09:12:56;;;;;;;6.38;5.75;;;;;;;21.57;32.32;100958.59;6003119;23;20039;-75
2023/06/04 09:15:23;;;;;;;5.88;5.47;;;;;;;21.64;33.88;101023.81;6016626;23;20027;-75
2023/06/04 09:17:49;;;;;;;5.75;5.45;;;;;;;21.94;34.25;101081.53;6035600;23;20037;-75
2023/06/04 09:20:20;;;;;;;6.38;5.80;;;;;;;21.66;33.63;101022.69;6010508;23;20031;-75
2023/06/04 09:22:47;;;;;;;5.70;5.40;;;;;;;21.78;33.50;101012.69;6008215;23;20035;-75
2023/06/04 09:25:25;;;;;;;6.20;5.80;;;;;;;21.19;33.98;100955.00;6031123;23;20031;-75
2023/06/04 09:27:53;;;;;;;5.95;5.65;;;;;;;21.69;33.76;100990.34;6003122;23;20026;-75
2023/06/04 09:30:19;;;;;;;5.88;5.57;;;;;;;21.40;33.67;100977.03;6002651;23;20031;-75
2023/06/04 09:32:46;;;;;;;5.90;5.60;;;;;;;20.19;33.20;100743.72;6033232;23;20615;-76
2023/06/04 09:35:17;;;;;;;5.90;5.60;;;;;;;21.57;33.41;100996.88;6008005;23;20082;-75
2023/06/04 09:37:56;;;;;;;6.13;5.70;;;;;;;21.67;33.14;100983.50;6034884;23;20039;-75
2023/06/04 09:40:23;;;;;;;6.03;5.70;;;;;;;21.62;33.64;100991.09;6010632;23;20022;-75
2023/06/04 09:42:54;;;;;;;7.28;5.78;;;;;;;21.58;32.19;100944.28;6038059;23;20458;-75
2023/06/04 09:45:29;;;;;;;5.85;5.55;;;;;;;21.33;31.59;100866.50;6006041;23;20072;-76
2023/06/04 09:47:56;;;;;;;5.93;5.55;;;;;;;22.30;32.66;101073.72;6012480;23;20406;-75
2023/06/04 09:50:27;;;;;;;5.88;5.57;;;;;;;22.63;31.96;101044.69;6008343;23;20090;-76
2023/06/04 09:52:54;;;;;;;6.10;5.70;;;;;;;21.27;31.53;100835.03;6031348;23;20038;-75
2023/06/04 09:55:22;;;;;;;6.78;6.38;;;;;;;22.08;33.51;101038.31;6000397;23;20872;-75
2023/06/04 09:57:50;;;;;;;6.97;6.53;;;;;;;22.04;34.09;101109.09;6008774;23;20023;-76
2023/06/04 10:00:22;;;;;;;6.30;5.90;;;;;;;21.63;32.03;100907.28;6007860;23;20021;-76
2023/06/04 10:02:51;;;;;;;6.22;5.82;;;;;;;22.60;30.92;101002.19;6037458;23;20022;-76
2023/06/04 10:05:21;;;;;;;5.97;5.63;;;;;;;22.61;33.03;101125.09;6008629;23;20027;-75
2023/06/04 10:07:50;;;;;;;6.68;6.10;;;;;;;22.14;31.65;100919.25;6032052;23;20066;-76
2023/06/04 10:10:20;;;;;;;6.18;5.80;;;;;;;22.86;32.61;101101.31;6002900;23;20048;-75
2023/06/04 10:12:56;;;;;;;6.20;5.80;;;;;;;22.77;33.30;101116.44;6024024;23;20023;-76
2023/06/04 10:15:23;;;;;;;5.93;5.63;;;;;;;22.40;33.52;101053.13;6008595;23;20402;-76
2023/06/04 10:17:50;;;;;;;6.35;5.95;;;;;;;22.43;33.46;101042.13;6036211;23;20084;-75
2023/06/04 10:20:20;;;;;;;5.85;5.55;;;;;;;22.14;32.65;101026.19;6007403;23;20038;-77
2023/06/04 10:22:48;;;;;;;6.20;5.80;;;;;;;22.37;31.87;101012.44;6042283;23;20675;-76
2023/06/04 10:25:16;;;;;;;6.25;5.85;;;;;;;22.56;31.83;101011.50;6012481;23;20474;-76
2023/06/04 10:27:42;;;;;;;6.22;5.82;;;;;;;22.38;32.36;100987.41;6046324;23;20134;-76
2023/06/04 10:30:09;;;;;;;6.10;5.80;;;;;;;21.49;32.34;100858.72;6001114;23;20528;-76
2023/06/04 10:32:37;;;;;;;5.97;5.55;;;;;;;22.46;32.60;101049.84;6038120;23;20021;-76
2023/06/04 10:35:07;;;;;;;6.10;5.63;;;;;;;21.70;32.29;100893.19;6002666;23;20116;-76
2023/06/04 10:37:34;;;;;;;6.47;6.00;;;;;;;;;;6030659;23;20023;-75
2023/06/04 10:40:01;;;;;;;5.88;5.57;;;;;;;21.70;31.53;100871.00;6027718;23;20026;-76
2023/06/04 10:42:38;;;;;;;6.05;5.75;;;;;;;22.67;32.53;101112.94;6028807;23;20030;-75
2023/06/04 10:45:06;;;;;;;6.15;5.75;;;;;;;21.61;31.57;100815.78;6008195;23;20074;-75
2023/06/04 10:47:37;;;;;;;7.15;5.53;;;;;;;22.75;31.87;101024.72;6025920;23;20027;-75
2023/06/04 10:50:12;;;;;;;6.10;5.50;;;;;;;22.53;31.59;101001.94;6048246;23;20022;-76
2023/06/04 10:52:51;;;;;;;6.00;5.40;;;;;;;21.01;31.21;100717.44;6003479;23;20534;-76
2023/06/04 10:55:17;;;;;;;5.80;5.50;;;;;;;22.28;30.56;100885.88;6028062;23;20052;-76
2023/06/04 10:58:10;;;;;;;5.63;5.30;;;;;;;22.16;30.11;100857.63;6006275;23;20050;-76
2023/06/04 11:00:40;;;;;;;;;;;;;;;22.87;30.86;101042.28;6030853;23;20033;-76
2023/06/04 11:03:09;;;;;;;6.07;5.68;;;;;;;21.67;31.22;100857.94;6006746;23;19922;-76
2023/06/04 11:05:39;;;;;;;6.18;5.68;;;;;;;22.84;29.88;100964.97;6034485;23;20037;-76
2023/06/04 11:08:06;;;;;;;5.93;5.63;;;;;;;23.38;32.56;101164.97;6004949;23;20854;-76
2023/06/04 11:10:35;;;;;;;6.07;5.68;;;;;;;22.66;31.35;101010.44;6032350;23;20057;-76
2023/06/04 11:13:06;;;;;;;6.00;5.70;;;;;;;22.81;30.96;101001.88;6012843;23;20026;-76
2023/06/04 11:15:42;;;;;;;5.85;5.50;;;;;;;22.14;31.37;100915.75;6041212;23;20370;-76
2023/06/04 11:18:20;;;;;;;6.10;5.70;;;;;;;22.29;29.73;100856.31;6012685;23;20108;-75
2023/06/04 11:20:59;;;;;;;5.70;5.40;;;;;;;23.00;30.52;101031.19;6018769;23;20742;-76
2023/06/04 11:23:26;;;;;;;5.68;5.38;;;;;;;22.50;29.72;100882.72;6039143;23;20688;-76
2023/06/04 11:25:53;;;;;;;5.70;5.40;;;;;;;23.25;31.27;101043.00;6012933;23;20118;-75
2023/06/04 11:28:21;;;;;;;6.63;6.22;;;;;;;23.19;32.43;101107.00;6005370;23;20038;-75
2023/06/04 11:31:05;;;;;;;6.25;5.80;;;;;;;22.98;32.71;101097.41;6015219;23;20078;-76
2023/06/04 11:33:45;;;;;;;6.68;5.90;;;;;;;22.46;31.77;100977.63;6017840;23;20588;-76
2023/06/04 11:36:28;;;;;;;5.80;5.50;;;;;;;23.36;29.44;101000.91;6014507;23;20029;-76
2023/06/04 11:38:58;;;;;;;5.88;5.57;;;;;;;23.63;30.56;101074.91;6007622;23;20056;-75